createdAt,value
2022-11-10T00:01:09.856Z,42.10
2022-11-10T00:03:55.957Z,40.90
2022-11-10T00:06:42.297Z,40.10
2022-11-10T00:09:27.964Z,44.20
2022-11-10T00:12:13.821Z,47.90
2022-11-10T00:19:00.171Z,44.00
2022-11-10T00:22:22.906Z,45.70
2022-11-10T00:25:11.281Z,44.60
2022-11-10T00:27:58.946Z,42.90
2022-11-10T00:30:46.929Z,43.90
2022-11-10T00:33:35.411Z,46.50
2022-11-10T00:36:21.098Z,43.80
2022-11-10T00:39:07.326Z,41.10
2022-11-10T00:41:53.780Z,43.50
2022-11-10T00:44:39.364Z,41.20
2022-11-10T00:47:24.980Z,42.80
2022-11-10T00:50:10.971Z,41.40
2022-11-10T00:52:56.927Z,44.50
2022-11-10T00:55:42.818Z,41.10
2022-11-10T00:58:28.517Z,37.90
2022-11-10T01:01:14.530Z,40.10
2022-11-10T01:04:00.690Z,40.20
2022-11-10T01:06:48.311Z,42.10
2022-11-10T01:09:34.205Z,43.30
2022-11-10T01:12:20.111Z,48.60
2022-11-10T01:15:07.046Z,43.70
2022-11-10T01:17:53.650Z,42.20
2022-11-10T01:20:39.607Z,40.50
2022-11-10T01:23:25.391Z,41.40
2022-11-10T01:26:11.503Z,44.30
2022-11-10T01:28:57.723Z,44.60
2022-11-10T01:31:44.530Z,47.20
2022-11-10T01:34:30.584Z,41.60
2022-11-10T01:37:16.420Z,41.50
2022-11-10T01:40:01.958Z,43.50
2022-11-10T01:42:51.834Z,44.30
2022-11-10T01:45:46.565Z,45.00
2022-11-10T01:48:40.302Z,45.20
2022-11-10T01:51:36.160Z,41.80
2022-11-10T01:54:26.737Z,39.70
2022-11-10T01:57:13.235Z,44.00
2022-11-10T01:59:59.014Z,45.10
2022-11-10T02:03:28.138Z,44.40
2022-11-10T02:06:14.311Z,45.30
2022-11-10T02:09:00.199Z,41.30
2022-11-10T02:11:45.883Z,40.00
2022-11-10T02:14:31.485Z,37.60
2022-11-10T02:17:17.251Z,37.40
2022-11-10T02:20:06.683Z,36.30
2022-11-10T02:22:52.407Z,40.80
2022-11-10T02:25:38.194Z,43.80
2022-11-10T02:28:24.803Z,35.70
2022-11-10T02:31:10.714Z,35.60
2022-11-10T02:33:56.527Z,33.40
2022-11-10T02:36:42.677Z,33.30
2022-11-10T02:39:28.260Z,31.80
2022-11-10T02:42:13.939Z,32.10
2022-11-10T02:44:59.825Z,28.00
2022-11-10T02:47:45.612Z,27.90
2022-11-10T02:50:31.608Z,27.40
2022-11-10T02:53:17.326Z,27.30
2022-11-10T02:56:03.500Z,28.60
2022-11-10T02:58:49.170Z,29.10
2022-11-10T03:01:34.791Z,28.40
2022-11-10T03:04:20.431Z,29.10
2022-11-10T03:07:06.471Z,25.30
2022-11-10T03:09:52.142Z,28.00
2022-11-10T03:12:38.198Z,28.60
2022-11-10T03:15:24.194Z,33.30
2022-11-10T03:18:10.190Z,32.40
2022-11-10T03:20:55.866Z,33.20
2022-11-10T03:23:41.651Z,33.50
2022-11-10T03:26:27.747Z,32.30
2022-11-10T03:29:13.637Z,32.90
2022-11-10T03:31:59.317Z,28.80
2022-11-10T03:34:45.045Z,32.10
2022-11-10T03:37:30.688Z,30.50
2022-11-10T03:40:16.906Z,27.60
2022-11-10T03:43:02.576Z,26.20
2022-11-10T03:45:48.386Z,25.80
2022-11-10T03:48:34.138Z,26.00
2022-11-10T03:51:19.931Z,25.90
2022-11-10T03:54:06.122Z,27.00
2022-11-10T03:56:52.847Z,26.20
2022-11-10T03:59:38.615Z,26.40
2022-11-10T04:02:24.300Z,25.50
2022-11-10T04:05:29.032Z,26.00
2022-11-10T04:08:34.886Z,26.30
2022-11-10T04:11:40.232Z,26.60
2022-11-10T04:14:45.167Z,36.00
2022-11-10T04:17:31.676Z,29.70
2022-11-10T04:20:17.970Z,29.70
2022-11-10T04:23:22.903Z,29.10
2022-11-10T04:26:28.967Z,31.00
2022-11-10T04:29:17.763Z,32.00
2022-11-10T04:32:03.722Z,35.10
2022-11-10T04:34:49.703Z,30.60
2022-11-10T04:37:35.797Z,29.00
2022-11-10T04:40:21.482Z,28.90
2022-11-10T04:43:07.575Z,29.80
2022-11-10T04:45:53.981Z,31.80
2022-11-10T04:48:39.596Z,33.80
2022-11-10T04:51:28.967Z,34.20
2022-11-10T04:54:14.714Z,31.30
2022-11-10T04:57:00.398Z,29.40
2022-11-10T04:59:46.089Z,32.20
2022-11-10T05:02:36.859Z,28.00
2022-11-10T05:05:25.026Z,29.70
2022-11-10T05:08:10.636Z,29.10
2022-11-10T05:10:56.599Z,29.90
2022-11-10T05:13:43.027Z,27.10
2022-11-10T05:16:28.789Z,27.50
2022-11-10T05:19:14.584Z,28.40
2022-11-10T05:22:00.288Z,29.50
2022-11-10T05:24:46.049Z,29.60
2022-11-10T05:27:31.832Z,29.70
2022-11-10T05:30:18.373Z,30.60
2022-11-10T05:33:04.940Z,27.60
2022-11-10T05:35:51.170Z,26.90
2022-11-10T05:38:43.000Z,27.70
2022-11-10T05:41:29.372Z,28.10
2022-11-10T05:44:15.255Z,28.70
2022-11-10T05:47:01.244Z,28.20
2022-11-10T05:49:46.989Z,30.00
2022-11-10T05:52:32.832Z,26.80
2022-11-10T05:55:20.593Z,28.10
2022-11-10T05:58:06.542Z,27.10
2022-11-10T06:00:52.327Z,25.60
2022-11-10T06:03:37.837Z,26.40
2022-11-10T06:06:23.604Z,29.10
2022-11-10T06:09:09.279Z,30.40
2022-11-10T06:11:54.859Z,28.60
2022-11-10T06:14:40.651Z,26.00
2022-11-10T06:17:26.536Z,27.40
2022-11-10T06:20:13.491Z,31.10
2022-11-10T06:23:03.734Z,32.50
2022-11-10T06:25:49.418Z,30.30
2022-11-10T06:28:35.101Z,33.80
2022-11-10T06:31:20.892Z,27.50
2022-11-10T06:34:07.091Z,32.80
2022-11-10T06:36:52.672Z,37.50
2022-11-10T06:39:38.452Z,37.40
2022-11-10T06:42:24.236Z,35.60
2022-11-10T06:45:10.365Z,33.90
2022-11-10T06:48:14.293Z,33.30
2022-11-10T06:53:48.980Z,44.80
2022-11-10T06:56:35.285Z,40.50
2022-11-10T06:59:20.963Z,63.40
2022-11-10T07:02:06.549Z,41.10
2022-11-10T07:04:52.230Z,37.80
2022-11-10T07:07:38.415Z,35.30
2022-11-10T07:10:24.415Z,34.60
2022-11-10T07:13:10.352Z,32.30
2022-11-10T07:15:55.904Z,33.00
2022-11-10T07:18:41.891Z,31.80
2022-11-10T07:21:27.671Z,33.30
2022-11-10T07:24:13.451Z,38.30
2022-11-10T07:26:59.032Z,38.20
2022-11-10T07:29:45.023Z,36.70
2022-11-10T07:32:31.012Z,35.70
2022-11-10T07:35:16.713Z,35.60
2022-11-10T07:38:12.830Z,36.20
2022-11-10T07:40:58.632Z,36.30
2022-11-10T07:43:44.605Z,40.00
2022-11-10T07:46:30.287Z,41.00
2022-11-10T07:49:16.202Z,41.60
2022-11-10T07:52:02.373Z,40.30
2022-11-10T07:54:47.958Z,41.90
2022-11-10T07:57:34.395Z,42.00
2022-11-10T08:00:20.447Z,45.10
2022-11-10T08:03:11.047Z,41.90
2022-11-10T08:05:57.348Z,43.50
2022-11-10T08:08:43.557Z,43.80
2022-11-10T08:11:29.272Z,43.10
2022-11-10T08:14:15.014Z,40.60
2022-11-10T08:17:00.839Z,41.60
2022-11-10T08:19:46.631Z,42.10
2022-11-10T08:25:18.568Z,40.40
2022-11-10T08:28:11.704Z,38.70
2022-11-10T08:31:01.477Z,39.00
2022-11-10T08:33:49.967Z,44.70
2022-11-10T08:36:37.853Z,46.40
2022-11-10T08:39:38.017Z,47.40
2022-11-10T08:42:24.859Z,48.60
2022-11-10T08:45:11.191Z,51.90
2022-11-10T08:48:09.502Z,49.80
2022-11-10T08:50:55.052Z,45.20
2022-11-10T08:53:41.036Z,47.70
2022-11-10T08:56:26.783Z,51.10
2022-11-10T08:59:12.467Z,51.20
2022-11-10T09:01:58.677Z,50.80
2022-11-10T09:04:44.279Z,50.80
2022-11-10T09:07:31.067Z,44.90
2022-11-10T09:10:16.717Z,42.10
2022-11-10T09:13:03.039Z,39.90
2022-11-10T09:15:49.006Z,39.60
2022-11-10T09:18:34.974Z,38.40
2022-11-10T09:21:20.589Z,38.20
2022-11-10T09:24:07.112Z,38.60
2022-11-10T09:26:54.392Z,33.80
2022-11-10T09:29:40.302Z,32.90
2022-11-10T09:32:26.081Z,35.70
2022-11-10T09:35:11.661Z,39.80
2022-11-10T09:37:57.350Z,40.20
2022-11-10T09:41:02.894Z,42.20
2022-11-10T09:43:53.815Z,40.40
2022-11-10T09:46:42.257Z,39.00
2022-11-10T09:49:31.111Z,38.00
2022-11-10T09:52:16.694Z,43.80
2022-11-10T09:55:08.939Z,42.50
2022-11-10T09:57:55.069Z,43.90
2022-11-10T10:00:42.138Z,43.00
2022-11-10T10:03:29.254Z,40.90
2022-11-10T10:06:14.939Z,44.80
2022-11-10T10:09:06.665Z,39.20
2022-11-10T10:12:07.708Z,37.20
2022-11-10T10:15:02.818Z,36.30
2022-11-10T10:17:51.926Z,43.40
2022-11-10T10:21:03.163Z,41.80
2022-11-10T10:24:12.661Z,44.20
2022-11-10T10:27:00.672Z,42.60
2022-11-10T10:29:47.144Z,44.10
2022-11-10T10:32:33.134Z,42.90
2022-11-10T10:35:19.070Z,44.90
2022-11-10T10:38:04.911Z,42.00
2022-11-10T10:40:52.099Z,38.70
2022-11-10T10:43:37.715Z,38.90
2022-11-10T10:46:34.457Z,36.50
2022-11-10T10:49:31.488Z,36.70
2022-11-10T10:52:17.996Z,40.10
2022-11-10T10:55:07.093Z,38.70
2022-11-10T10:57:55.380Z,37.90
2022-11-10T11:00:44.773Z,39.10
2022-11-10T11:03:50.169Z,37.90
2022-11-10T11:06:35.904Z,36.20
2022-11-10T11:09:25.867Z,35.20
2022-11-10T11:12:27.371Z,29.20
2022-11-10T11:15:20.379Z,27.40
2022-11-10T11:18:15.444Z,26.00
2022-11-10T11:21:17.163Z,23.50
2022-11-10T11:24:05.794Z,27.00
2022-11-10T11:26:59.665Z,25.10
2022-11-10T11:30:18.689Z,24.10
2022-11-10T11:37:15.286Z,19.80
2022-11-10T11:40:25.443Z,19.70
2022-11-10T11:43:47.167Z,16.10
2022-11-10T11:46:46.303Z,19.80
2022-11-10T11:49:47.240Z,16.60
2022-11-10T11:53:28.535Z,14.70
2022-11-10T11:56:22.323Z,16.30
2022-11-10T12:02:39.383Z,15.10
2022-11-10T12:05:44.166Z,15.90
2022-11-10T12:08:38.329Z,15.00
2022-11-10T12:11:44.196Z,15.80
2022-11-10T12:14:51.356Z,14.80
2022-11-10T12:17:55.677Z,15.10
2022-11-10T12:20:53.276Z,16.50
2022-11-10T12:23:49.582Z,16.20
2022-11-10T12:26:42.628Z,15.60
2022-11-10T12:29:28.195Z,16.30
2022-11-10T12:32:32.484Z,15.50
2022-11-10T12:35:29.162Z,15.80
2022-11-10T12:38:18.042Z,16.80
2022-11-10T12:41:15.067Z,15.90
2022-11-10T12:44:08.308Z,15.00
2022-11-10T12:46:58.640Z,16.50
2022-11-10T12:49:52.468Z,15.90
2022-11-10T12:52:41.710Z,18.20
2022-11-10T12:55:40.740Z,20.40
2022-11-10T12:58:26.906Z,21.00
2022-11-10T13:01:19.747Z,21.00
2022-11-10T13:04:05.333Z,19.70
2022-11-10T13:06:53.285Z,19.10
2022-11-10T13:09:42.928Z,20.10
2022-11-10T13:12:28.703Z,20.80
2022-11-10T13:15:39.400Z,19.70
2022-11-10T13:18:31.231Z,19.50
2022-11-10T13:21:16.850Z,19.00
2022-11-10T13:24:02.733Z,19.00
2022-11-10T13:26:58.765Z,18.70
2022-11-10T13:29:47.279Z,18.60
2022-11-10T13:32:36.390Z,18.50
2022-11-10T13:35:28.266Z,22.60
2022-11-10T13:38:32.018Z,37.00
2022-11-10T13:44:02.466Z,40.30
2022-11-10T13:47:10.068Z,26.90
2022-11-10T13:50:21.463Z,25.40
2022-11-10T13:53:34.891Z,41.70
2022-11-10T13:59:50.426Z,27.10
2022-11-10T14:06:30.226Z,29.20
2022-11-10T14:12:48.521Z,32.40
2022-11-10T14:15:44.436Z,31.20
2022-11-10T14:18:49.956Z,32.50
2022-11-10T14:21:42.838Z,35.10
2022-11-10T14:24:30.907Z,41.70
2022-11-10T14:27:22.817Z,34.20
2022-11-10T14:30:25.915Z,33.60
2022-11-10T14:33:13.436Z,31.10
2022-11-10T14:36:00.679Z,42.00
2022-11-10T14:38:46.541Z,39.30
2022-11-10T14:41:34.893Z,36.40
2022-11-10T14:44:26.014Z,38.00
2022-11-10T14:47:28.999Z,37.30
2022-11-10T14:50:14.930Z,37.10
2022-11-10T14:53:23.080Z,34.30
2022-11-10T14:56:15.599Z,35.50
2022-11-10T14:59:02.026Z,34.20
2022-11-10T15:02:00.819Z,33.60
2022-11-10T15:04:47.219Z,34.40
2022-11-10T15:07:32.769Z,35.70
2022-11-10T15:10:22.888Z,46.10
2022-11-10T15:13:14.754Z,44.40
2022-11-10T15:16:25.834Z,45.20
2022-11-10T15:19:27.704Z,41.40
2022-11-10T15:22:18.488Z,38.60
2022-11-10T15:25:18.583Z,38.40
2022-11-10T15:28:07.442Z,39.40
2022-11-10T15:30:56.564Z,35.50
2022-11-10T15:33:46.368Z,36.20
2022-11-10T15:36:36.733Z,39.20
2022-11-10T15:39:25.448Z,38.30
2022-11-10T15:42:22.098Z,39.60
2022-11-10T15:45:08.168Z,42.30
2022-11-10T15:47:58.664Z,54.20
2022-11-10T15:50:47.779Z,46.90
2022-11-10T15:53:34.774Z,49.60
2022-11-10T15:56:22.012Z,47.40
2022-11-10T15:59:10.105Z,47.70
2022-11-10T16:01:55.920Z,48.70
2022-11-10T16:04:41.579Z,47.50
2022-11-10T16:07:27.262Z,47.30
2022-11-10T16:10:13.049Z,47.50
2022-11-10T16:12:58.767Z,49.90
2022-11-10T16:15:45.736Z,52.30
2022-11-10T16:18:31.528Z,53.80
2022-11-10T16:21:22.333Z,45.60
2022-11-10T16:24:08.415Z,43.80
2022-11-10T16:26:54.110Z,40.10
2022-11-10T16:29:40.512Z,39.30
2022-11-10T16:32:26.432Z,41.70
2022-11-10T16:35:13.974Z,42.40
2022-11-10T16:37:59.332Z,40.70
2022-11-10T16:40:45.894Z,36.80
2022-11-10T16:43:31.734Z,36.80
2022-11-10T16:46:25.315Z,38.40
2022-11-10T16:52:13.020Z,42.80
2022-11-10T16:54:58.338Z,45.70
2022-11-10T16:57:44.386Z,43.30
2022-11-10T17:00:30.383Z,42.60
2022-11-10T17:03:19.667Z,44.90
2022-11-10T17:06:05.697Z,41.30
2022-11-10T17:08:51.731Z,39.20
2022-11-10T17:11:37.423Z,36.30
2022-11-10T17:14:23.321Z,33.50
2022-11-10T17:17:15.556Z,28.80
2022-11-10T17:20:01.639Z,31.40
2022-11-10T17:22:47.531Z,31.70
2022-11-10T17:25:39.673Z,31.60
2022-11-10T17:28:25.760Z,32.20
2022-11-10T17:31:13.837Z,30.30
2022-11-10T17:33:59.068Z,29.20
2022-11-10T17:36:44.848Z,29.30
2022-11-10T17:39:31.252Z,31.10
2022-11-10T17:42:17.274Z,32.00
2022-11-10T17:45:02.924Z,31.50
2022-11-10T17:47:49.342Z,34.00
2022-11-10T17:50:36.347Z,37.00
2022-11-10T17:53:24.192Z,34.90
2022-11-10T17:56:10.542Z,33.00
2022-11-10T17:58:56.566Z,26.60
2022-11-10T18:01:42.286Z,21.30
2022-11-10T18:04:27.935Z,20.40
2022-11-10T18:07:13.807Z,19.60
2022-11-10T18:10:01.865Z,18.30
2022-11-10T18:12:47.856Z,18.80
2022-11-10T18:15:35.850Z,17.30
2022-11-10T18:18:22.396Z,17.20
2022-11-10T18:21:09.486Z,16.30
2022-11-10T18:23:55.838Z,17.00
2022-11-10T18:26:42.699Z,17.20
2022-11-10T18:29:27.965Z,17.00
2022-11-10T18:32:13.513Z,17.00
2022-11-10T18:34:59.162Z,17.80
2022-11-10T18:37:46.958Z,18.50
2022-11-10T18:40:32.686Z,17.70
2022-11-10T18:43:18.567Z,15.20
2022-11-10T18:46:04.123Z,14.20
2022-11-10T18:48:50.123Z,13.00
2022-11-10T18:51:35.794Z,14.00
2022-11-10T18:54:26.637Z,14.50
2022-11-10T18:57:13.297Z,12.30
2022-11-10T18:59:59.622Z,13.00
2022-11-10T19:02:48.134Z,12.00
2022-11-10T19:05:33.623Z,12.10
2022-11-10T19:08:19.225Z,12.40
2022-11-10T19:11:12.371Z,12.70
2022-11-10T19:13:58.638Z,12.50
2022-11-10T19:16:46.898Z,12.60
2022-11-10T19:19:32.350Z,12.40
2022-11-10T19:22:17.955Z,12.60
2022-11-10T19:25:10.567Z,12.70
2022-11-10T19:27:56.933Z,13.50
2022-11-10T19:30:42.218Z,12.20
2022-11-10T19:33:31.833Z,11.40
2022-11-10T19:36:21.731Z,11.50
2022-11-10T19:39:07.682Z,10.20
2022-11-10T19:41:54.255Z,10.60
2022-11-10T19:44:40.175Z,10.50
2022-11-10T19:47:26.439Z,10.70
2022-11-10T19:50:13.973Z,13.10
2022-11-10T19:52:59.462Z,11.50
2022-11-10T19:55:48.172Z,12.80
2022-11-10T19:58:38.828Z,11.20
2022-11-10T20:01:24.234Z,11.80
2022-11-10T20:04:10.143Z,11.60
2022-11-10T20:07:14.584Z,10.70
2022-11-10T20:10:00.584Z,9.70
2022-11-10T20:12:46.258Z,9.80
2022-11-10T20:15:31.997Z,9.10
2022-11-10T20:18:17.496Z,9.70
2022-11-10T20:21:07.256Z,10.30
2022-11-10T20:23:56.652Z,9.10
2022-11-10T20:26:42.441Z,9.30
2022-11-10T20:29:28.325Z,9.30
2022-11-10T20:32:16.439Z,12.30
2022-11-10T20:35:02.258Z,20.00
2022-11-10T20:37:47.706Z,13.10
2022-11-10T20:42:47.266Z,9.00
2022-11-10T20:45:33.104Z,9.50
2022-11-10T20:48:18.914Z,9.40
2022-11-10T20:51:12.261Z,9.60
2022-11-10T20:54:00.500Z,11.10
2022-11-10T20:56:46.900Z,8.50
2022-11-10T20:59:35.864Z,7.10
2022-11-10T21:02:21.960Z,7.60
2022-11-10T21:05:08.525Z,8.20
2022-11-10T21:07:54.054Z,8.70
2022-11-10T21:10:40.048Z,10.20
2022-11-10T21:13:28.069Z,9.00
2022-11-10T21:16:14.063Z,6.90
2022-11-10T21:19:01.284Z,6.20
2022-11-10T21:21:51.899Z,6.00
2022-11-10T21:24:38.010Z,6.50
2022-11-10T21:27:26.106Z,7.40
2022-11-10T21:30:22.751Z,7.30
2022-11-10T21:33:09.045Z,7.80
2022-11-10T21:35:55.141Z,9.00
2022-11-10T21:38:40.825Z,9.70
2022-11-10T21:41:26.814Z,10.50
2022-11-10T21:44:17.982Z,10.00
2022-11-10T21:47:06.184Z,10.80
2022-11-10T21:50:12.658Z,78.20
2022-11-10T21:53:18.252Z,17.50
2022-11-10T21:56:06.018Z,13.70
2022-11-10T21:58:51.660Z,12.50
2022-11-10T22:01:37.552Z,13.90
2022-11-10T22:04:23.418Z,12.20
2022-11-10T22:07:24.263Z,12.60
2022-11-10T22:10:29.715Z,14.20
2022-11-10T22:13:35.459Z,12.50
2022-11-10T22:16:43.263Z,13.80
2022-11-10T22:19:29.465Z,12.80
2022-11-10T22:22:15.381Z,13.80
2022-11-10T22:25:01.337Z,12.40
2022-11-10T22:27:47.020Z,12.30
2022-11-10T22:30:33.042Z,12.40
2022-11-10T22:33:27.610Z,52.20
2022-11-10T22:36:17.907Z,16.30
2022-11-10T22:39:04.224Z,12.70
2022-11-10T22:42:08.566Z,12.20
2022-11-10T22:44:54.508Z,11.70
2022-11-10T22:47:59.094Z,11.20
2022-11-10T22:50:44.721Z,12.30
2022-11-10T22:53:31.526Z,12.30
2022-11-10T22:56:19.976Z,10.80
2022-11-10T22:59:05.966Z,11.00
2022-11-10T23:01:51.488Z,11.60
2022-11-10T23:04:38.405Z,11.40
2022-11-10T23:07:24.159Z,12.50
2022-11-10T23:10:09.936Z,11.10
2022-11-10T23:12:55.724Z,10.60
2022-11-10T23:15:42.050Z,11.10
2022-11-10T23:18:28.521Z,11.50
2022-11-10T23:21:15.372Z,12.20
2022-11-10T23:24:01.318Z,10.90
2022-11-10T23:26:49.467Z,10.60
2022-11-10T23:29:35.292Z,11.80
2022-11-10T23:32:21.584Z,11.20
2022-11-10T23:35:09.943Z,11.90
2022-11-10T23:37:55.682Z,10.20
2022-11-10T23:40:41.474Z,11.40
2022-11-10T23:43:27.386Z,11.90
2022-11-10T23:46:13.780Z,11.60
2022-11-10T23:48:59.439Z,12.10
2022-11-10T23:51:45.224Z,12.10
2022-11-10T23:54:31.012Z,11.50
2022-11-10T23:57:16.797Z,12.20
